Aviation Digital Data Service (ADDS)

Output produced by METARs form (0619 UTC 19 February 2019)
found at http://www.aviationweather.gov/metar/data/
 
Forecast for: EGGP (LIVERPOOL AIRPOR, GB)
Text: TAF EGGP 190459Z 1906/2006 24009KT 9999 SCT035
Forecast period: 0600 to 1500 UTC 19 February 2019
Forecast type: FROM: standard forecast or significant change
Winds: from the WSW (240 degrees) at 10 MPH (9 knots; 4.6 m/s)
Visibility: 6 or more miles 10+ km)
Ceiling: at least 12,000 feet AGL
Clouds: scattered clouds at 3500 feet AGL
Weather: no significant weather forecast for this period
Text: BECMG 1915/1918 17010KT
Forecast period: 1500 UTC 19 February 2019 to 0600 UTC 20 February 2019
Forecast type: BECOMING: Conditions expected to become as follows by 1800 UTC 19 February 2019
Winds: from the S (170 degrees) at 12 MPH (10 knots; 5.1 m/s)
Visibility: 6 or more miles 10+ km)
Ceiling: at least 12,000 feet AGL
Clouds: scattered clouds at 3500 feet AGL
Weather: no significant weather forecast for this period
Text: TEMPO 1918/2006 5000 RA BKN014
Forecast period: 1800 UTC 19 February 2019 to 0600 UTC 20 February 2019
Forecast type: TEMPORARY: The following changes expected for less than half the time period
Visibility: 3 miles (5 km)
Ceiling: 1400 feet AGL
Clouds: broken clouds at 1400 feet AGL
Weather: RA  (moderate rain)